Osnaburg, Ohio
Current Conditions -  °F | °C
As of 11:51 AM on Thursday 30 Oct 2014 (Local Time) from KCAK Reporting Station
Broken Clouds Broken Clouds  
Wind Chill: 45°   Ceiling: 2100
Heat Index: 47°   Visibility: 10mi
Dew Point: 38°   Wind: 5mph
Humidity: 71%   Direction: 330°NNW
Pressure: 30.12"   Gusts: NA
Location:  40.7679°N, 81.2601°W
Report Text: KCAK 301551Z 33004KT 10SM BKN021 BKN048 08/03 A3012 RMK AO2 SLP204 T00830033
Loading
Personal Weather Stations






























Interactive Weather Map
Tropical Storm Tracking
New forecast layout! Learn more

10-Day Weather Forecast

Advertisements
Track Severe Weather on mobile